Aviation Digital Data Service (ADDS)

Output produced by METARs form (1350 UTC 04 August 2015)
found at http://aviationweather.gov/adds/metars/
 
KFDY 041120Z 0412/0512 25005KT P6SM FEW050 
     FM041500 26011KT P6SM SCT050 
     FM042300 28005KT P6SM SKC